createdAt,value
2017-11-26T00:01:05.280Z,8.80
2017-11-26T00:03:35.285Z,6.78
2017-11-26T00:06:05.476Z,6.68
2017-11-26T00:08:35.346Z,6.90
2017-11-26T00:11:08.905Z,6.78
2017-11-26T00:13:38.784Z,8.95
2017-11-26T00:16:09.065Z,14.25
2017-11-26T00:21:13.777Z,8.90
2017-11-26T00:23:44.212Z,10.07
2017-11-26T00:26:14.490Z,8.35
2017-11-26T00:28:44.961Z,8.18
2017-11-26T00:31:14.845Z,7.70
2017-11-26T00:33:44.782Z,9.23
2017-11-26T00:36:15.105Z,7.37
2017-11-26T00:44:01.709Z,7.80
2017-11-26T00:46:32.180Z,8.57
2017-11-26T00:49:02.998Z,7.57
2017-11-26T00:51:33.957Z,7.55
2017-11-26T00:54:04.781Z,9.05
2017-11-26T00:56:36.587Z,6.65
2017-11-26T01:01:42.890Z,7.62
2017-11-26T01:04:13.209Z,7.80
2017-11-26T01:06:45.013Z,7.80
2017-11-26T01:11:52.276Z,7.82
2017-11-26T01:14:25.316Z,7.70
2017-11-26T01:16:55.334Z,8.25
2017-11-26T01:19:27.807Z,8.45
2017-11-26T01:21:58.004Z,7.87
2017-11-26T01:24:31.298Z,9.00
2017-11-26T01:27:01.891Z,8.27
2017-11-26T01:32:06.683Z,9.35
2017-11-26T01:34:37.026Z,7.30
2017-11-26T01:42:21.511Z,7.05
2017-11-26T01:44:53.998Z,9.32
2017-11-26T01:47:24.146Z,8.70
2017-11-26T01:49:54.567Z,8.73
2017-11-26T01:54:58.808Z,8.20
2017-11-26T02:00:05.225Z,8.55
2017-11-26T02:07:45.608Z,8.80
2017-11-26T02:10:16.217Z,8.43
2017-11-26T02:12:48.974Z,9.65
2017-11-26T02:15:21.037Z,7.47
2017-11-26T02:17:52.109Z,8.05
2017-11-26T02:20:22.613Z,8.43
2017-11-26T02:22:52.911Z,10.93
2017-11-26T02:25:23.628Z,6.85
2017-11-26T02:27:53.503Z,7.57
2017-11-26T02:30:23.131Z,7.32
2017-11-26T02:33:03.877Z,8.48
2017-11-26T02:35:41.569Z,8.75
2017-11-26T02:45:53.567Z,7.30
2017-11-26T02:48:24.253Z,6.93
2017-11-26T02:53:29.404Z,6.82
2017-11-26T02:58:32.929Z,9.00
2017-11-26T03:01:03.761Z,6.12
2017-11-26T03:03:35.512Z,7.00
2017-11-26T03:06:05.944Z,6.25
2017-11-26T03:11:10.459Z,5.60
2017-11-26T03:13:41.120Z,5.18
2017-11-26T03:18:45.372Z,5.28
2017-11-26T03:23:49.157Z,5.85
2017-11-26T03:26:19.706Z,4.80
2017-11-26T03:28:50.149Z,4.87
2017-11-26T03:31:23.932Z,4.37
2017-11-26T03:33:54.245Z,4.70
2017-11-26T03:36:24.235Z,3.70
2017-11-26T03:38:54.565Z,3.60
2017-11-26T03:41:24.749Z,3.70
2017-11-26T03:43:54.292Z,3.70
2017-11-26T03:46:29.028Z,3.30
2017-11-26T03:48:58.900Z,3.85
2017-11-26T03:51:29.994Z,3.72
2017-11-26T03:54:02.329Z,3.58
2017-11-26T03:56:32.321Z,3.03
2017-11-26T03:59:02.515Z,3.35
2017-11-26T04:09:18.105Z,3.50
2017-11-26T04:11:48.379Z,4.03
2017-11-26T04:14:21.326Z,3.08
2017-11-26T04:16:51.207Z,3.37
2017-11-26T04:19:22.695Z,3.22
2017-11-26T04:21:53.186Z,2.70
2017-11-26T04:26:56.872Z,3.42
2017-11-26T04:32:03.611Z,3.28
2017-11-26T04:34:37.572Z,3.70
2017-11-26T04:39:47.316Z,2.58
2017-11-26T04:42:17.204Z,3.50
2017-11-26T04:44:47.973Z,3.17
2017-11-26T04:47:18.553Z,4.78
2017-11-26T04:49:48.430Z,4.90
2017-11-26T04:52:20.256Z,3.70
2017-11-26T04:54:50.651Z,3.25
2017-11-26T04:57:20.664Z,3.00
2017-11-26T04:59:50.295Z,3.55
2017-11-26T05:02:20.040Z,4.18
2017-11-26T05:04:51.137Z,4.60
2017-11-26T05:07:25.549Z,3.97
2017-11-26T05:09:57.809Z,3.03
2017-11-26T05:12:31.089Z,3.47
2017-11-26T05:15:03.163Z,3.95
2017-11-26T05:17:35.945Z,3.40
2017-11-26T05:20:07.956Z,2.65
2017-11-26T05:22:41.981Z,2.90
2017-11-26T05:27:48.519Z,2.70
2017-11-26T05:30:30.879Z,2.80
2017-11-26T05:33:03.426Z,2.92
2017-11-26T05:35:34.430Z,3.53
2017-11-26T05:38:04.186Z,2.70
2017-11-26T05:40:42.316Z,3.00
2017-11-26T05:43:14.485Z,2.78
2017-11-26T05:45:44.423Z,2.50
2017-11-26T05:48:14.311Z,2.53
2017-11-26T05:50:44.372Z,2.67
2017-11-26T05:53:14.175Z,2.60
2017-11-26T05:55:43.990Z,2.95
2017-11-26T05:58:13.722Z,2.80
2017-11-26T06:00:42.970Z,2.80
2017-11-26T06:03:12.752Z,2.65
2017-11-26T06:05:43.871Z,2.97
2017-11-26T06:08:13.570Z,2.80
2017-11-26T06:10:43.433Z,3.85
2017-11-26T06:13:20.733Z,3.10
2017-11-26T06:15:52.988Z,5.93
2017-11-26T06:18:25.978Z,3.33
2017-11-26T06:20:57.628Z,3.12
2017-11-26T06:23:27.884Z,3.75
2017-11-26T06:28:40.849Z,3.10
2017-11-26T06:31:14.715Z,2.97
2017-11-26T06:33:45.019Z,4.22
2017-11-26T06:36:14.884Z,4.05
2017-11-26T06:38:44.692Z,3.00
2017-11-26T06:41:14.272Z,4.12
2017-11-26T06:43:44.220Z,3.55
2017-11-26T06:46:13.791Z,6.10
2017-11-26T06:48:43.560Z,3.72
2017-11-26T06:51:13.305Z,3.95
2017-11-26T06:53:43.411Z,4.47
2017-11-26T06:56:13.206Z,3.87
2017-11-26T06:58:43.036Z,3.60
2017-11-26T07:01:12.582Z,7.45
2017-11-26T07:03:42.491Z,3.60
2017-11-26T07:06:12.602Z,4.90
2017-11-26T07:08:42.410Z,4.40
2017-11-26T07:11:12.233Z,3.70
2017-11-26T07:13:41.450Z,5.07
2017-11-26T07:16:11.504Z,6.70
2017-11-26T07:18:40.978Z,5.10
2017-11-26T07:21:25.963Z,4.75
2017-11-26T07:23:56.691Z,5.30
2017-11-26T07:26:29.733Z,4.60
2017-11-26T07:28:59.535Z,7.12
2017-11-26T07:31:29.275Z,4.72
2017-11-26T07:33:59.211Z,5.40
2017-11-26T07:36:30.350Z,5.80
2017-11-26T07:39:01.064Z,4.87
2017-11-26T07:46:57.095Z,5.03
2017-11-26T07:55:55.891Z,10.32
2017-11-26T07:58:25.747Z,7.53
2017-11-26T08:00:55.617Z,5.90
2017-11-26T08:03:25.389Z,5.55
2017-11-26T08:05:55.220Z,5.47
2017-11-26T08:08:25.794Z,6.45
2017-11-26T08:10:55.680Z,7.37
2017-11-26T08:13:25.585Z,7.32
2017-11-26T08:15:58.563Z,5.80
2017-11-26T08:21:09.492Z,4.93
2017-11-26T08:23:41.435Z,4.90
2017-11-26T08:53:08.653Z,9.40
2017-11-26T08:58:24.086Z,11.82
2017-11-26T09:00:55.441Z,12.77
2017-11-26T09:03:29.481Z,11.85
2017-11-26T09:06:00.422Z,11.07
2017-11-26T09:08:54.271Z,14.18
2017-11-26T09:11:25.854Z,13.62
2017-11-26T09:13:55.520Z,10.77
2017-11-26T09:16:26.714Z,13.82
2017-11-26T09:19:00.165Z,12.00
2017-11-26T09:21:33.301Z,10.88
2017-11-26T09:24:06.404Z,12.55
2017-11-26T09:26:39.820Z,16.95
2017-11-26T09:29:13.247Z,10.95
2017-11-26T09:31:46.423Z,11.98
2017-11-26T09:34:20.826Z,10.68
2017-11-26T09:36:55.557Z,14.20
2017-11-26T09:39:29.213Z,14.02
2017-11-26T09:41:58.992Z,14.38
2017-11-26T09:44:28.706Z,10.30
2017-11-26T09:46:58.405Z,12.15
2017-11-26T09:49:28.224Z,10.40
2017-11-26T09:51:58.558Z,10.07
2017-11-26T09:54:29.128Z,15.65
2017-11-26T09:56:59.202Z,11.35
2017-11-26T09:59:28.996Z,9.98
2017-11-26T10:01:58.744Z,13.18
2017-11-26T10:04:28.575Z,10.98
2017-11-26T10:06:58.352Z,7.25
2017-11-26T10:09:28.253Z,6.93
2017-11-26T10:12:00.750Z,6.30
2017-11-26T10:14:33.685Z,6.28
2017-11-26T10:17:03.589Z,7.53
2017-11-26T10:19:33.383Z,9.23
2017-11-26T10:22:03.296Z,6.03
2017-11-26T10:24:33.920Z,6.12
2017-11-26T10:27:04.092Z,6.35
2017-11-26T10:29:33.579Z,6.30
2017-11-26T10:32:05.394Z,6.37
2017-11-26T10:34:35.333Z,5.25
2017-11-26T10:37:05.883Z,7.18
2017-11-26T10:39:35.974Z,6.32
2017-11-26T10:42:05.856Z,5.78
2017-11-26T10:44:35.217Z,10.60
2017-11-26T10:47:04.876Z,6.72
2017-11-26T10:49:35.199Z,6.22
2017-11-26T10:52:05.305Z,11.38
2017-11-26T10:54:34.734Z,9.35
2017-11-26T10:57:05.632Z,5.90
2017-11-26T10:59:35.531Z,6.93
2017-11-26T11:02:05.434Z,6.20
2017-11-26T11:07:16.866Z,6.20
2017-11-26T11:09:46.592Z,7.25
2017-11-26T11:12:15.988Z,7.30
2017-11-26T11:14:45.692Z,7.72
2017-11-26T11:17:15.078Z,7.78
2017-11-26T11:19:45.120Z,6.07
2017-11-26T11:22:14.508Z,6.82
2017-11-26T11:24:44.241Z,5.57
2017-11-26T11:27:14.007Z,4.55
2017-11-26T11:29:43.537Z,4.50
2017-11-26T11:32:13.299Z,5.80
2017-11-26T11:34:43.051Z,4.25
2017-11-26T11:37:12.821Z,4.87
2017-11-26T11:39:42.596Z,5.15
2017-11-26T11:42:12.306Z,6.00
2017-11-26T11:44:42.405Z,6.43
2017-11-26T11:47:12.196Z,4.65
2017-11-26T11:49:41.986Z,5.95
2017-11-26T11:52:11.909Z,5.12
2017-11-26T11:54:41.470Z,4.35
2017-11-26T11:57:10.873Z,4.90
2017-11-26T11:59:40.296Z,5.87
2017-11-26T12:02:09.691Z,5.55
2017-11-26T12:04:39.470Z,4.50
2017-11-26T12:07:09.538Z,4.28
2017-11-26T12:09:39.253Z,4.28
2017-11-26T12:12:09.060Z,4.87
2017-11-26T12:14:38.497Z,6.10
2017-11-26T12:17:07.923Z,8.77
2017-11-26T12:19:37.396Z,5.25
2017-11-26T12:22:06.764Z,3.80
2017-11-26T12:24:36.163Z,4.87
2017-11-26T12:27:05.585Z,4.95
2017-11-26T12:29:34.845Z,5.03
2017-11-26T12:32:03.819Z,4.00
2017-11-26T12:34:33.250Z,8.15
2017-11-26T12:37:02.438Z,4.37
2017-11-26T12:39:31.835Z,3.55
2017-11-26T12:42:01.228Z,3.60
2017-11-26T12:44:30.614Z,5.50
2017-11-26T12:46:59.977Z,8.50
2017-11-26T12:49:29.402Z,4.00
2017-11-26T12:51:58.786Z,3.70
2017-11-26T12:57:03.707Z,4.20
2017-11-26T12:59:33.105Z,3.62
2017-11-26T13:02:02.519Z,5.43
2017-11-26T13:04:31.906Z,5.95
2017-11-26T13:07:01.304Z,6.53
2017-11-26T13:09:30.496Z,4.75
2017-11-26T13:11:59.937Z,5.45
2017-11-26T13:14:29.384Z,6.65
2017-11-26T13:17:03.087Z,5.57
2017-11-26T13:19:32.559Z,4.32
2017-11-26T13:22:01.957Z,3.85
2017-11-26T13:24:31.207Z,4.20
2017-11-26T13:27:00.492Z,4.00
2017-11-26T13:29:30.606Z,4.10
2017-11-26T13:32:00.036Z,5.03
2017-11-26T13:34:29.459Z,4.15
2017-11-26T13:36:58.856Z,5.03
2017-11-26T13:39:28.251Z,4.75
2017-11-26T13:41:57.644Z,4.40
2017-11-26T13:44:27.061Z,6.30
2017-11-26T13:49:51.317Z,3.85
2017-11-26T13:52:24.651Z,4.00
2017-11-26T13:54:54.244Z,3.75
2017-11-26T13:57:23.791Z,4.30
2017-11-26T13:59:53.377Z,4.00
2017-11-26T14:02:23.658Z,4.25
2017-11-26T14:04:53.261Z,5.70
2017-11-26T14:07:22.912Z,4.57
2017-11-26T14:09:52.214Z,3.70
2017-11-26T14:12:22.009Z,5.00
2017-11-26T14:14:51.618Z,3.30
2017-11-26T14:17:21.152Z,3.20
2017-11-26T14:19:50.905Z,5.32
2017-11-26T14:22:20.707Z,4.50
2017-11-26T14:24:50.307Z,3.75
2017-11-26T14:27:20.037Z,2.87
2017-11-26T14:29:50.041Z,2.95
2017-11-26T14:32:19.530Z,3.00
2017-11-26T14:34:48.926Z,2.67
2017-11-26T14:37:18.590Z,3.58
2017-11-26T14:39:48.153Z,7.03
2017-11-26T14:42:17.435Z,4.60
2017-11-26T14:44:46.672Z,3.20
2017-11-26T14:47:16.167Z,3.47
2017-11-26T14:49:45.815Z,4.03
2017-11-26T14:52:16.039Z,3.00
2017-11-26T14:54:45.119Z,4.43
2017-11-26T14:57:14.444Z,4.85
2017-11-26T14:59:46.042Z,3.00
2017-11-26T15:02:15.596Z,3.78
2017-11-26T15:04:45.161Z,4.05
2017-11-26T15:07:14.578Z,4.65
2017-11-26T15:09:43.807Z,5.37
2017-11-26T15:12:13.226Z,3.60
2017-11-26T15:14:42.520Z,5.72
2017-11-26T15:17:11.785Z,4.78
2017-11-26T15:19:40.840Z,5.85
2017-11-26T15:22:10.065Z,3.22
2017-11-26T15:24:39.285Z,4.28
2017-11-26T15:27:08.691Z,5.87
2017-11-26T15:29:38.046Z,3.35
2017-11-26T15:32:07.468Z,5.10
2017-11-26T15:34:36.895Z,4.37
2017-11-26T15:37:06.060Z,5.65
2017-11-26T15:39:35.317Z,3.65
2017-11-26T15:42:04.705Z,6.30
2017-11-26T15:44:34.590Z,5.07
2017-11-26T15:47:03.784Z,4.20
2017-11-26T15:49:33.230Z,4.90
2017-11-26T15:52:02.623Z,3.22
2017-11-26T15:54:32.106Z,4.70
2017-11-26T15:57:01.345Z,4.85
2017-11-26T15:59:31.187Z,5.00
2017-11-26T16:02:00.455Z,3.95
2017-11-26T16:04:29.727Z,3.20
2017-11-26T16:06:59.476Z,3.70
2017-11-26T16:09:28.842Z,5.93
2017-11-26T16:11:58.588Z,3.85
2017-11-26T16:14:28.006Z,4.60
2017-11-26T16:16:57.719Z,5.90
2017-11-26T16:19:31.412Z,5.10
2017-11-26T16:22:00.839Z,5.37
2017-11-26T16:24:31.143Z,5.45
2017-11-26T16:27:00.865Z,4.85
2017-11-26T16:29:30.297Z,5.60
2017-11-26T16:32:00.047Z,2.95
2017-11-26T16:34:29.428Z,6.03
2017-11-26T16:36:59.860Z,2.65
2017-11-26T16:39:29.574Z,2.12
2017-11-26T16:41:58.887Z,2.53
2017-11-26T16:44:28.307Z,3.20
2017-11-26T16:46:57.755Z,3.87
2017-11-26T16:49:26.926Z,2.45
2017-11-26T16:51:56.676Z,3.05
2017-11-26T16:54:26.128Z,2.40
2017-11-26T16:56:55.727Z,2.65
2017-11-26T16:59:25.217Z,2.40
2017-11-26T17:01:54.590Z,3.30
2017-11-26T17:04:23.803Z,1.80
2017-11-26T17:06:53.029Z,2.35
2017-11-26T17:09:22.222Z,2.95
2017-11-26T17:11:51.424Z,2.08
2017-11-26T17:14:20.822Z,1.73
2017-11-26T17:16:58.257Z,1.90
2017-11-26T17:19:27.788Z,1.85
2017-11-26T17:21:57.299Z,3.50
2017-11-26T17:24:26.691Z,2.25
2017-11-26T17:26:56.436Z,2.17
2017-11-26T17:29:25.901Z,2.15
2017-11-26T17:31:55.376Z,1.83
2017-11-26T17:34:24.747Z,1.85
2017-11-26T17:36:54.465Z,3.33
2017-11-26T17:39:23.863Z,3.50
2017-11-26T17:41:53.854Z,1.70
2017-11-26T17:44:23.062Z,1.62
2017-11-26T17:46:52.477Z,2.70
2017-11-26T17:49:21.868Z,2.35
2017-11-26T17:51:51.281Z,1.48
2017-11-26T17:54:20.673Z,2.10
2017-11-26T17:56:50.828Z,2.47
2017-11-26T17:59:20.603Z,2.10
2017-11-26T18:01:50.336Z,2.53
2017-11-26T18:04:21.325Z,1.90
2017-11-26T18:06:51.038Z,2.25
2017-11-26T18:09:20.742Z,2.55
2017-11-26T18:11:50.271Z,2.25
2017-11-26T18:14:19.824Z,2.50
2017-11-26T18:16:49.573Z,2.42
2017-11-26T18:19:19.347Z,2.50
2017-11-26T18:21:49.153Z,2.37
2017-11-26T18:24:18.905Z,2.67
2017-11-26T18:26:48.629Z,2.85
2017-11-26T18:29:18.345Z,6.47
2017-11-26T18:31:48.063Z,3.58
2017-11-26T18:34:17.838Z,2.95
2017-11-26T18:36:47.572Z,2.70
2017-11-26T18:39:17.461Z,3.05
2017-11-26T18:41:47.290Z,2.55
2017-11-26T18:44:17.036Z,2.22
2017-11-26T18:46:51.810Z,3.00
2017-11-26T18:49:21.792Z,4.60
2017-11-26T18:51:51.548Z,4.40
2017-11-26T18:54:21.304Z,4.97
2017-11-26T18:56:50.999Z,3.70
2017-11-26T18:59:20.744Z,3.97
2017-11-26T19:01:50.451Z,3.90
2017-11-26T19:04:20.181Z,4.25
2017-11-26T19:06:49.890Z,9.52
2017-11-26T19:09:19.654Z,4.50
2017-11-26T19:11:53.554Z,5.62
2017-11-26T19:14:23.323Z,7.35
2017-11-26T19:16:53.090Z,3.58
2017-11-26T19:19:22.834Z,6.53
2017-11-26T19:21:52.634Z,5.00
2017-11-26T19:24:22.676Z,2.87
2017-11-26T19:26:52.525Z,4.30
2017-11-26T19:29:22.299Z,6.50
2017-11-26T19:31:52.134Z,3.35
2017-11-26T19:34:22.107Z,4.35
2017-11-26T19:36:51.809Z,2.78
2017-11-26T19:39:21.515Z,5.18
2017-11-26T19:41:51.260Z,6.03
2017-11-26T19:44:21.183Z,4.43
2017-11-26T19:46:50.906Z,4.68
2017-11-26T19:49:20.518Z,4.95
2017-11-26T19:51:50.223Z,3.87
2017-11-26T19:54:19.917Z,3.83
2017-11-26T19:56:49.445Z,6.62
2017-11-26T19:59:23.010Z,3.97
2017-11-26T20:01:52.936Z,3.75
2017-11-26T20:04:22.723Z,5.32
2017-11-26T20:06:52.313Z,3.80
2017-11-26T20:09:21.917Z,4.57
2017-11-26T20:11:51.489Z,3.60
2017-11-26T20:14:21.228Z,3.90
2017-11-26T20:16:50.978Z,5.55
2017-11-26T20:19:20.698Z,4.07
2017-11-26T20:21:50.431Z,4.32
2017-11-26T20:24:20.149Z,7.30
2017-11-26T20:26:49.858Z,3.67
2017-11-26T20:29:19.398Z,4.18
2017-11-26T20:31:49.159Z,5.95
2017-11-26T20:34:19.058Z,5.87
2017-11-26T20:36:49.001Z,5.97
2017-11-26T20:39:18.772Z,6.90
2017-11-26T20:41:48.486Z,5.15
2017-11-26T20:44:18.202Z,10.75
2017-11-26T20:46:48.940Z,6.07
2017-11-26T20:49:20.093Z,5.10
2017-11-26T20:51:50.417Z,5.62
2017-11-26T20:54:20.153Z,6.35
2017-11-26T20:56:49.868Z,6.20
2017-11-26T20:59:19.674Z,7.20
2017-11-26T21:01:49.563Z,5.40
2017-11-26T21:04:19.305Z,6.90
2017-11-26T21:06:49.151Z,5.97
2017-11-26T21:09:18.916Z,6.30
2017-11-26T21:11:48.743Z,7.78
2017-11-26T21:14:18.356Z,5.62
2017-11-26T21:16:48.460Z,5.40
2017-11-26T21:19:18.318Z,6.45
2017-11-26T21:21:47.889Z,7.43
2017-11-26T21:24:17.442Z,5.28
2017-11-26T21:26:47.291Z,7.93
2017-11-26T21:29:17.323Z,7.45
2017-11-26T21:31:47.049Z,5.97
2017-11-26T21:34:16.850Z,5.47
2017-11-26T21:36:46.711Z,7.55
2017-11-26T21:39:16.425Z,6.90
2017-11-26T21:41:46.136Z,9.40
2017-11-26T21:44:15.863Z,7.97
2017-11-26T21:46:45.601Z,6.40
2017-11-26T21:49:15.411Z,7.53
2017-11-26T21:51:44.988Z,6.12
2017-11-26T21:54:15.071Z,5.10
2017-11-26T21:56:44.799Z,5.25
2017-11-26T21:59:14.606Z,8.13
2017-11-26T22:01:44.321Z,5.05
2017-11-26T22:04:14.036Z,6.05
2017-11-26T22:06:43.791Z,7.10
2017-11-26T22:09:13.520Z,5.55
2017-11-26T22:11:43.367Z,4.47
2017-11-26T22:14:13.094Z,4.25
2017-11-26T22:16:42.818Z,5.50
2017-11-26T22:19:12.756Z,7.32
2017-11-26T22:21:42.519Z,6.85
2017-11-26T22:24:12.236Z,4.75
2017-11-26T22:26:41.959Z,6.35
2017-11-26T22:29:11.679Z,6.50
2017-11-26T22:31:41.999Z,7.03
2017-11-26T22:34:11.737Z,7.22
2017-11-26T22:36:41.442Z,6.93
2017-11-26T22:39:11.149Z,5.40
2017-11-26T22:41:40.864Z,7.97
2017-11-26T22:44:10.581Z,6.18
2017-11-26T22:46:40.320Z,8.40
2017-11-26T22:49:10.135Z,10.50
2017-11-26T22:51:39.868Z,6.10
2017-11-26T22:54:09.637Z,10.13
2017-11-26T22:56:44.544Z,6.75
2017-11-26T22:59:15.674Z,10.88
2017-11-26T23:01:45.592Z,5.85
2017-11-26T23:04:15.318Z,5.25
2017-11-26T23:06:44.862Z,5.20
2017-11-26T23:09:14.569Z,5.72
2017-11-26T23:11:44.290Z,6.32
2017-11-26T23:14:14.006Z,7.12
2017-11-26T23:16:43.731Z,8.30
2017-11-26T23:19:13.452Z,5.62
2017-11-26T23:21:42.857Z,7.45
2017-11-26T23:24:12.770Z,5.65
2017-11-26T23:26:42.491Z,5.05
2017-11-26T23:29:12.192Z,5.12
2017-11-26T23:31:41.930Z,5.60
2017-11-26T23:34:11.651Z,5.18
2017-11-26T23:36:41.363Z,7.37
2017-11-26T23:39:11.083Z,5.37
2017-11-26T23:41:40.782Z,7.37
2017-11-26T23:44:10.491Z,6.70
2017-11-26T23:46:40.214Z,7.00
2017-11-26T23:49:09.930Z,5.95
2017-11-26T23:51:39.639Z,4.95
2017-11-26T23:54:09.178Z,5.37
2017-11-26T23:56:38.712Z,5.47
2017-11-26T23:59:08.743Z,12.88
